sensor_id;sensor_type;location;lat;lon;timestamp;P1;durP1;ratioP1;P2;durP2;ratioP2
52023;SDS011;38038;45.922;13.604;2023-02-28T00:00:05;11.70;;;10.90;;
52023;SDS011;38038;45.922;13.604;2023-02-28T00:02:35;11.90;;;11.13;;
52023;SDS011;38038;45.922;13.604;2023-02-28T00:05:05;11.67;;;10.87;;
52023;SDS011;38038;45.922;13.604;2023-02-28T00:07:33;11.60;;;10.80;;
52023;SDS011;38038;45.922;13.604;2023-02-28T00:09:58;10.93;;;10.33;;
52023;SDS011;38038;45.922;13.604;2023-02-28T00:12:25;12.43;;;11.63;;
52023;SDS011;38038;45.922;13.604;2023-02-28T00:14:51;11.37;;;10.67;;
52023;SDS011;38038;45.922;13.604;2023-02-28T00:17:16;11.63;;;10.83;;
52023;SDS011;38038;45.922;13.604;2023-02-28T00:19:49;11.37;;;10.67;;
52023;SDS011;38038;45.922;13.604;2023-02-28T00:22:16;11.43;;;10.73;;
52023;SDS011;38038;45.922;13.604;2023-02-28T00:24:43;11.53;;;10.73;;
52023;SDS011;38038;45.922;13.604;2023-02-28T00:27:09;11.70;;;11.00;;
52023;SDS011;38038;45.922;13.604;2023-02-28T00:29:35;11.90;;;11.07;;
52023;SDS011;38038;45.922;13.604;2023-02-28T00:32:01;13.27;;;12.00;;
52023;SDS011;38038;45.922;13.604;2023-02-28T00:34:27;12.10;;;11.30;;
52023;SDS011;38038;45.922;13.604;2023-02-28T00:36:53;11.57;;;10.70;;
52023;SDS011;38038;45.922;13.604;2023-02-28T00:39:20;11.90;;;11.03;;
52023;SDS011;38038;45.922;13.604;2023-02-28T00:41:46;11.57;;;10.77;;
52023;SDS011;38038;45.922;13.604;2023-02-28T00:44:11;13.17;;;12.23;;
52023;SDS011;38038;45.922;13.604;2023-02-28T00:46:37;11.27;;;10.57;;
52023;SDS011;38038;45.922;13.604;2023-02-28T00:49:03;11.37;;;10.57;;
52023;SDS011;38038;45.922;13.604;2023-02-28T00:51:29;12.37;;;11.57;;
52023;SDS011;38038;45.922;13.604;2023-02-28T00:53:54;11.10;;;10.40;;
52023;SDS011;38038;45.922;13.604;2023-02-28T00:56:20;10.93;;;10.17;;
52023;SDS011;38038;45.922;13.604;2023-02-28T00:58:46;11.73;;;11.03;;
52023;SDS011;38038;45.922;13.604;2023-02-28T01:01:12;11.90;;;11.10;;
52023;SDS011;38038;45.922;13.604;2023-02-28T01:03:37;12.03;;;11.27;;
52023;SDS011;38038;45.922;13.604;2023-02-28T01:06:03;11.90;;;11.00;;
52023;SDS011;38038;45.922;13.604;2023-02-28T01:08:29;11.00;;;10.30;;
52023;SDS011;38038;45.922;13.604;2023-02-28T01:10:55;11.17;;;10.47;;
52023;SDS011;38038;45.922;13.604;2023-02-28T01:13:21;11.03;;;10.23;;
52023;SDS011;38038;45.922;13.604;2023-02-28T01:15:52;11.97;;;11.23;;
52023;SDS011;38038;45.922;13.604;2023-02-28T01:18:20;11.47;;;10.87;;
52023;SDS011;38038;45.922;13.604;2023-02-28T01:20:47;11.83;;;11.13;;
52023;SDS011;38038;45.922;13.604;2023-02-28T01:23:13;11.90;;;11.20;;
52023;SDS011;38038;45.922;13.604;2023-02-28T01:25:39;11.20;;;10.60;;
52023;SDS011;38038;45.922;13.604;2023-02-28T01:28:05;11.90;;;11.20;;
52023;SDS011;38038;45.922;13.604;2023-02-28T01:30:31;11.63;;;10.93;;
52023;SDS011;38038;45.922;13.604;2023-02-28T01:32:57;11.57;;;10.77;;
52023;SDS011;38038;45.922;13.604;2023-02-28T01:35:23;11.87;;;11.17;;
52023;SDS011;38038;45.922;13.604;2023-02-28T01:37:49;12.37;;;11.57;;
52023;SDS011;38038;45.922;13.604;2023-02-28T01:40:15;12.03;;;11.13;;
52023;SDS011;38038;45.922;13.604;2023-02-28T01:42:41;11.53;;;10.83;;
52023;SDS011;38038;45.922;13.604;2023-02-28T01:45:26;11.47;;;10.67;;
52023;SDS011;38038;45.922;13.604;2023-02-28T01:47:58;11.43;;;10.73;;
52023;SDS011;38038;45.922;13.604;2023-02-28T01:50:28;11.67;;;10.97;;
52023;SDS011;38038;45.922;13.604;2023-02-28T01:52:57;12.37;;;11.60;;
52023;SDS011;38038;45.922;13.604;2023-02-28T01:55:27;12.03;;;11.23;;
52023;SDS011;38038;45.922;13.604;2023-02-28T01:57:57;12.33;;;11.43;;
52023;SDS011;38038;45.922;13.604;2023-02-28T02:00:27;13.33;;;12.50;;
52023;SDS011;38038;45.922;13.604;2023-02-28T02:03:04;11.77;;;11.07;;
52023;SDS011;38038;45.922;13.604;2023-02-28T02:05:34;11.90;;;11.20;;
52023;SDS011;38038;45.922;13.604;2023-02-28T02:08:03;12.40;;;11.50;;
52023;SDS011;38038;45.922;13.604;2023-02-28T02:10:38;13.30;;;12.37;;
52023;SDS011;38038;45.922;13.604;2023-02-28T08:36:42;11.73;;;10.93;;
52023;SDS011;38038;45.922;13.604;2023-02-28T08:39:09;11.83;;;11.03;;
52023;SDS011;38038;45.922;13.604;2023-02-28T08:41:35;12.53;;;11.73;;
52023;SDS011;38038;45.922;13.604;2023-02-28T08:44:01;12.27;;;11.57;;
52023;SDS011;38038;45.922;13.604;2023-02-28T08:46:27;11.00;;;10.37;;
52023;SDS011;38038;45.922;13.604;2023-02-28T08:48:54;12.00;;;11.30;;
52023;SDS011;38038;45.922;13.604;2023-02-28T08:51:21;11.40;;;10.80;;
52023;SDS011;38038;45.922;13.604;2023-02-28T08:53:51;12.37;;;11.67;;
52023;SDS011;38038;45.922;13.604;2023-02-28T08:56:18;12.50;;;11.80;;
52023;SDS011;38038;45.922;13.604;2023-02-28T08:58:45;11.70;;;10.90;;
52023;SDS011;38038;45.922;13.604;2023-02-28T09:01:12;12.30;;;11.60;;
52023;SDS011;38038;45.922;13.604;2023-02-28T09:03:44;11.37;;;10.70;;
52023;SDS011;38038;45.922;13.604;2023-02-28T09:06:11;11.73;;;10.90;;
52023;SDS011;38038;45.922;13.604;2023-02-28T09:08:38;11.07;;;10.47;;
52023;SDS011;38038;45.922;13.604;2023-02-28T09:11:04;11.50;;;10.80;;
52023;SDS011;38038;45.922;13.604;2023-02-28T09:13:31;11.27;;;10.60;;
52023;SDS011;38038;45.922;13.604;2023-02-28T09:15:58;12.00;;;11.30;;
52023;SDS011;38038;45.922;13.604;2023-02-28T09:18:24;11.00;;;10.40;;
52023;SDS011;38038;45.922;13.604;2023-02-28T09:20:51;11.70;;;11.00;;
52023;SDS011;38038;45.922;13.604;2023-02-28T09:23:17;11.97;;;11.17;;
52023;SDS011;38038;45.922;13.604;2023-02-28T09:25:49;12.03;;;11.33;;
52023;SDS011;38038;45.922;13.604;2023-02-28T09:28:17;11.05;;;10.45;;
52023;SDS011;38038;45.922;13.604;2023-02-28T09:30:44;11.37;;;10.67;;
52023;SDS011;38038;45.922;13.604;2023-02-28T09:33:11;11.83;;;10.93;;
52023;SDS011;38038;45.922;13.604;2023-02-28T09:35:38;11.13;;;10.43;;
52023;SDS011;38038;45.922;13.604;2023-02-28T09:38:04;11.40;;;10.70;;
52023;SDS011;38038;45.922;13.604;2023-02-28T09:40:30;11.37;;;10.67;;
52023;SDS011;38038;45.922;13.604;2023-02-28T09:42:57;11.23;;;10.53;;
52023;SDS011;38038;45.922;13.604;2023-02-28T09:47:59;11.45;;;10.65;;
52023;SDS011;38038;45.922;13.604;2023-02-28T09:50:33;12.70;;;11.93;;
52023;SDS011;38038;45.922;13.604;2023-02-28T09:53:23;12.87;;;12.07;;
52023;SDS011;38038;45.922;13.604;2023-02-28T09:55:59;12.07;;;11.33;;
52023;SDS011;38038;45.922;13.604;2023-02-28T09:58:48;10.40;;;9.80;;
52023;SDS011;38038;45.922;13.604;2023-02-28T10:07:48;11.23;;;10.53;;
52023;SDS011;38038;45.922;13.604;2023-02-28T10:10:50;12.70;;;11.90;;
52023;SDS011;38038;45.922;13.604;2023-02-28T10:13:04;13.40;;;12.40;;
52023;SDS011;38038;45.922;13.604;2023-02-28T10:15:46;10.00;;;9.40;;
52023;SDS011;38038;45.922;13.604;2023-02-28T10:18:16;12.50;;;11.73;;
52023;SDS011;38038;45.922;13.604;2023-02-28T10:20:51;10.87;;;10.27;;
52023;SDS011;38038;45.922;13.604;2023-02-28T10:25:55;11.87;;;11.10;;
52023;SDS011;38038;45.922;13.604;2023-02-28T10:28:25;11.33;;;10.67;;
52023;SDS011;38038;45.922;13.604;2023-02-28T10:30:53;11.47;;;10.77;;
52023;SDS011;38038;45.922;13.604;2023-02-28T10:33:24;10.93;;;10.33;;
52023;SDS011;38038;45.922;13.604;2023-02-28T10:35:53;12.43;;;11.53;;
52023;SDS011;38038;45.922;13.604;2023-02-28T10:38:24;13.37;;;12.63;;
52023;SDS011;38038;45.922;13.604;2023-02-28T10:43:40;12.93;;;12.13;;
52023;SDS011;38038;45.922;13.604;2023-02-28T10:46:11;11.63;;;11.00;;
52023;SDS011;38038;45.922;13.604;2023-02-28T10:49:06;10.97;;;10.37;;
52023;SDS011;38038;45.922;13.604;2023-02-28T10:51:39;11.67;;;10.70;;
52023;SDS011;38038;45.922;13.604;2023-02-28T10:54:14;14.30;;;13.50;;
52023;SDS011;38038;45.922;13.604;2023-02-28T10:56:45;12.07;;;11.37;;
52023;SDS011;38038;45.922;13.604;2023-02-28T10:59:30;12.07;;;11.27;;
52023;SDS011;38038;45.922;13.604;2023-02-28T11:01:56;22.03;;;20.87;;
52023;SDS011;38038;45.922;13.604;2023-02-28T11:06:48;11.83;;;11.10;;
52023;SDS011;38038;45.922;13.604;2023-02-28T11:09:33;11.20;;;10.50;;
52023;SDS011;38038;45.922;13.604;2023-02-28T11:12:01;11.63;;;10.90;;
52023;SDS011;38038;45.922;13.604;2023-02-28T11:14:33;11.63;;;11.00;;
52023;SDS011;38038;45.922;13.604;2023-02-28T11:17:32;12.02;;;11.32;;
52023;SDS011;38038;45.922;13.604;2023-02-28T11:20:07;12.70;;;11.60;;
52023;SDS011;38038;45.922;13.604;2023-02-28T11:22:43;12.07;;;11.27;;
52023;SDS011;38038;45.922;13.604;2023-02-28T11:25:16;11.27;;;10.57;;
52023;SDS011;38038;45.922;13.604;2023-02-28T11:27:51;13.47;;;12.67;;
52023;SDS011;38038;45.922;13.604;2023-02-28T11:32:50;13.00;;;12.10;;
52023;SDS011;38038;45.922;13.604;2023-02-28T11:37:57;12.63;;;11.73;;
52023;SDS011;38038;45.922;13.604;2023-02-28T11:40:27;11.37;;;10.67;;
52023;SDS011;38038;45.922;13.604;2023-02-28T11:46:14;12.63;;;11.73;;
52023;SDS011;38038;45.922;13.604;2023-02-28T11:51:42;12.27;;;11.37;;
52023;SDS011;38038;45.922;13.604;2023-02-28T11:57:20;12.30;;;11.50;;
52023;SDS011;38038;45.922;13.604;2023-02-28T12:00:07;12.60;;;11.77;;
52023;SDS011;38038;45.922;13.604;2023-02-28T12:08:26;12.90;;;12.10;;
52023;SDS011;38038;45.922;13.604;2023-02-28T12:16:36;11.07;;;10.33;;
52023;SDS011;38038;45.922;13.604;2023-02-28T12:19:55;10.90;;;10.20;;
52023;SDS011;38038;45.922;13.604;2023-02-28T12:27:42;12.23;;;11.53;;
52023;SDS011;38038;45.922;13.604;2023-02-28T12:30:27;12.50;;;11.80;;
52023;SDS011;38038;45.922;13.604;2023-02-28T12:32:56;11.70;;;11.00;;
52023;SDS011;38038;45.922;13.604;2023-02-28T12:35:54;10.93;;;10.23;;
52023;SDS011;38038;45.922;13.604;2023-02-28T12:38:23;12.27;;;11.57;;
52023;SDS011;38038;45.922;13.604;2023-02-28T12:41:16;11.60;;;10.90;;
52023;SDS011;38038;45.922;13.604;2023-02-28T12:44:03;11.80;;;11.10;;
52023;SDS011;38038;45.922;13.604;2023-02-28T12:46:34;12.17;;;11.47;;
52023;SDS011;38038;45.922;13.604;2023-02-28T12:49:08;11.17;;;10.47;;
52023;SDS011;38038;45.922;13.604;2023-02-28T12:51:40;11.38;;;10.77;;
52023;SDS011;38038;45.922;13.604;2023-02-28T12:54:13;11.23;;;10.53;;
52023;SDS011;38038;45.922;13.604;2023-02-28T12:59:17;13.27;;;12.47;;
52023;SDS011;38038;45.922;13.604;2023-02-28T13:07:36;12.57;;;11.53;;
52023;SDS011;38038;45.922;13.604;2023-02-28T13:10:23;11.97;;;11.27;;
52023;SDS011;38038;45.922;13.604;2023-02-28T13:12:52;11.57;;;10.93;;
52023;SDS011;38038;45.922;13.604;2023-02-28T13:15:24;11.50;;;10.70;;
52023;SDS011;38038;45.922;13.604;2023-02-28T13:17:54;11.30;;;10.60;;
52023;SDS011;38038;45.922;13.604;2023-02-28T13:22:56;12.73;;;12.02;;
52023;SDS011;38038;45.922;13.604;2023-02-28T13:28:10;13.10;;;12.30;;
52023;SDS011;38038;45.922;13.604;2023-02-28T14:02:16;13.87;;;12.73;;
52023;SDS011;38038;45.922;13.604;2023-02-28T14:05:26;12.93;;;12.07;;
52023;SDS011;38038;45.922;13.604;2023-02-28T14:07:53;13.33;;;12.50;;
52023;SDS011;38038;45.922;13.604;2023-02-28T14:10:31;12.57;;;11.77;;
52023;SDS011;38038;45.922;13.604;2023-02-28T14:13:14;12.00;;;11.23;;
52023;SDS011;38038;45.922;13.604;2023-02-28T14:16:21;11.90;;;11.20;;
52023;SDS011;38038;45.922;13.604;2023-02-28T14:19:02;12.47;;;11.67;;
52023;SDS011;38038;45.922;13.604;2023-02-28T14:27:08;11.23;;;10.53;;
52023;SDS011;38038;45.922;13.604;2023-02-28T14:35:27;12.47;;;11.57;;
52023;SDS011;38038;45.922;13.604;2023-02-28T14:38:13;12.33;;;11.60;;
52023;SDS011;38038;45.922;13.604;2023-02-28T14:40:43;11.83;;;10.93;;
52023;SDS011;38038;45.922;13.604;2023-02-28T14:43:22;12.20;;;11.40;;
52023;SDS011;38038;45.922;13.604;2023-02-28T14:45:50;12.63;;;11.83;;
52023;SDS011;38038;45.922;13.604;2023-02-28T14:48:19;12.53;;;11.73;;
52023;SDS011;38038;45.922;13.604;2023-02-28T14:50:50;11.87;;;11.07;;
52023;SDS011;38038;45.922;13.604;2023-02-28T14:53:19;12.63;;;11.73;;
52023;SDS011;38038;45.922;13.604;2023-02-28T14:55:47;13.47;;;12.57;;
52023;SDS011;38038;45.922;13.604;2023-02-28T14:58:22;12.20;;;11.40;;
52023;SDS011;38038;45.922;13.604;2023-02-28T15:00:50;11.83;;;11.13;;
52023;SDS011;38038;45.922;13.604;2023-02-28T15:03:29;11.87;;;11.07;;
52023;SDS011;38038;45.922;13.604;2023-02-28T15:06:04;12.77;;;11.95;;
52023;SDS011;38038;45.922;13.604;2023-02-28T15:08:41;12.90;;;11.93;;
52023;SDS011;38038;45.922;13.604;2023-02-28T15:11:08;13.07;;;12.07;;
52023;SDS011;38038;45.922;13.604;2023-02-28T15:13:42;13.00;;;12.10;;
52023;SDS011;38038;45.922;13.604;2023-02-28T15:16:16;13.03;;;12.13;;
52023;SDS011;38038;45.922;13.604;2023-02-28T15:26:25;13.53;;;12.60;;
52023;SDS011;38038;45.922;13.604;2023-02-28T15:28:59;12.20;;;11.30;;
52023;SDS011;38038;45.922;13.604;2023-02-28T15:31:28;11.30;;;10.60;;
52023;SDS011;38038;45.922;13.604;2023-02-28T15:33:57;13.33;;;12.43;;
52023;SDS011;38038;45.922;13.604;2023-02-28T15:36:32;13.27;;;12.37;;
52023;SDS011;38038;45.922;13.604;2023-02-28T15:39:02;12.60;;;11.68;;
52023;SDS011;38038;45.922;13.604;2023-02-28T15:41:43;14.10;;;13.10;;
52023;SDS011;38038;45.922;13.604;2023-02-28T15:46:52;13.33;;;12.43;;
52023;SDS011;38038;45.922;13.604;2023-02-28T15:49:24;13.10;;;12.20;;
52023;SDS011;38038;45.922;13.604;2023-02-28T15:51:51;12.70;;;11.90;;
52023;SDS011;38038;45.922;13.604;2023-02-28T15:54:23;12.37;;;11.57;;
52023;SDS011;38038;45.922;13.604;2023-02-28T15:56:53;14.00;;;12.95;;
52023;SDS011;38038;45.922;13.604;2023-02-28T15:59:22;13.30;;;12.33;;
52023;SDS011;38038;45.922;13.604;2023-02-28T16:04:35;13.13;;;12.32;;
52023;SDS011;38038;45.922;13.604;2023-02-28T16:07:03;13.33;;;12.10;;
52023;SDS011;38038;45.922;13.604;2023-02-28T16:09:31;13.20;;;12.30;;
52023;SDS011;38038;45.922;13.604;2023-02-28T16:12:00;12.93;;;12.13;;
52023;SDS011;38038;45.922;13.604;2023-02-28T16:14:28;15.00;;;13.90;;
52023;SDS011;38038;45.922;13.604;2023-02-28T16:17:04;13.60;;;12.70;;
52023;SDS011;38038;45.922;13.604;2023-02-28T16:19:31;12.27;;;11.27;;
52023;SDS011;38038;45.922;13.604;2023-02-28T16:21:57;13.43;;;12.53;;
52023;SDS011;38038;45.922;13.604;2023-02-28T16:24:23;14.13;;;13.20;;
52023;SDS011;38038;45.922;13.604;2023-02-28T16:26:49;13.00;;;12.10;;
52023;SDS011;38038;45.922;13.604;2023-02-28T16:29:25;14.00;;;13.00;;
52023;SDS011;38038;45.922;13.604;2023-02-28T16:31:57;13.63;;;12.70;;
52023;SDS011;38038;45.922;13.604;2023-02-28T16:34:23;14.80;;;13.60;;
52023;SDS011;38038;45.922;13.604;2023-02-28T16:36:49;14.03;;;12.93;;
52023;SDS011;38038;45.922;13.604;2023-02-28T16:39:15;17.57;;;16.07;;
52023;SDS011;38038;45.922;13.604;2023-02-28T16:41:42;12.70;;;11.80;;
52023;SDS011;38038;45.922;13.604;2023-02-28T16:44:10;14.50;;;13.50;;
52023;SDS011;38038;45.922;13.604;2023-02-28T16:46:46;13.00;;;12.13;;
52023;SDS011;38038;45.922;13.604;2023-02-28T16:49:11;13.70;;;12.80;;
52023;SDS011;38038;45.922;13.604;2023-02-28T16:51:40;14.47;;;13.27;;
52023;SDS011;38038;45.922;13.604;2023-02-28T16:54:05;12.90;;;12.00;;
52023;SDS011;38038;45.922;13.604;2023-02-28T16:56:31;13.77;;;12.73;;
52023;SDS011;38038;45.922;13.604;2023-02-28T16:58:59;12.20;;;11.50;;
52023;SDS011;38038;45.922;13.604;2023-02-28T17:01:27;19.00;;;17.77;;
52023;SDS011;38038;45.922;13.604;2023-02-28T17:03:54;14.17;;;12.80;;
52023;SDS011;38038;45.922;13.604;2023-02-28T17:06:24;16.30;;;15.40;;
52023;SDS011;38038;45.922;13.604;2023-02-28T17:08:52;13.90;;;12.87;;
52023;SDS011;38038;45.922;13.604;2023-02-28T17:11:19;15.13;;;14.00;;
52023;SDS011;38038;45.922;13.604;2023-02-28T17:13:46;14.63;;;13.63;;
52023;SDS011;38038;45.922;13.604;2023-02-28T17:16:28;15.20;;;14.20;;
52023;SDS011;38038;45.922;13.604;2023-02-28T17:18:56;14.20;;;13.27;;
52023;SDS011;38038;45.922;13.604;2023-02-28T17:21:26;13.97;;;13.07;;
52023;SDS011;38038;45.922;13.604;2023-02-28T17:23:53;14.50;;;13.50;;
52023;SDS011;38038;45.922;13.604;2023-02-28T17:26:19;14.27;;;13.33;;
52023;SDS011;38038;45.922;13.604;2023-02-28T17:28:49;14.03;;;12.83;;
52023;SDS011;38038;45.922;13.604;2023-02-28T17:31:16;13.57;;;12.60;;
52023;SDS011;38038;45.922;13.604;2023-02-28T17:33:42;13.77;;;12.80;;
52023;SDS011;38038;45.922;13.604;2023-02-28T17:36:15;13.90;;;13.00;;
52023;SDS011;38038;45.922;13.604;2023-02-28T17:38:43;13.80;;;12.93;;
52023;SDS011;38038;45.922;13.604;2023-02-28T17:41:12;13.60;;;12.67;;
52023;SDS011;38038;45.922;13.604;2023-02-28T17:43:37;13.87;;;12.93;;
52023;SDS011;38038;45.922;13.604;2023-02-28T17:46:03;18.97;;;17.77;;
52023;SDS011;38038;45.922;13.604;2023-02-28T17:48:31;13.33;;;12.23;;
52023;SDS011;38038;45.922;13.604;2023-02-28T17:50:57;13.70;;;12.80;;
52023;SDS011;38038;45.922;13.604;2023-02-28T17:53:22;14.00;;;12.93;;
52023;SDS011;38038;45.922;13.604;2023-02-28T17:55:49;14.27;;;13.37;;
52023;SDS011;38038;45.922;13.604;2023-02-28T17:58:15;13.33;;;12.33;;
52023;SDS011;38038;45.922;13.604;2023-02-28T18:00:41;14.70;;;13.70;;
52023;SDS011;38038;45.922;13.604;2023-02-28T18:03:07;14.10;;;13.10;;
52023;SDS011;38038;45.922;13.604;2023-02-28T18:05:34;13.30;;;12.27;;
52023;SDS011;38038;45.922;13.604;2023-02-28T18:08:01;13.87;;;12.87;;
52023;SDS011;38038;45.922;13.604;2023-02-28T18:10:27;15.17;;;13.90;;
52023;SDS011;38038;45.922;13.604;2023-02-28T18:12:52;13.90;;;13.00;;
52023;SDS011;38038;45.922;13.604;2023-02-28T18:15:19;14.67;;;13.67;;
52023;SDS011;38038;45.922;13.604;2023-02-28T18:17:47;13.83;;;12.83;;
52023;SDS011;38038;45.922;13.604;2023-02-28T18:20:14;14.13;;;13.10;;
52023;SDS011;38038;45.922;13.604;2023-02-28T18:22:40;13.90;;;12.97;;
52023;SDS011;38038;45.922;13.604;2023-02-28T18:25:07;12.43;;;11.20;;
52023;SDS011;38038;45.922;13.604;2023-02-28T18:27:38;13.67;;;12.83;;
52023;SDS011;38038;45.922;13.604;2023-02-28T18:30:04;13.33;;;12.47;;
52023;SDS011;38038;45.922;13.604;2023-02-28T18:32:30;15.17;;;14.17;;
52023;SDS011;38038;45.922;13.604;2023-02-28T18:34:56;14.47;;;13.57;;
52023;SDS011;38038;45.922;13.604;2023-02-28T18:37:22;15.73;;;14.33;;
52023;SDS011;38038;45.922;13.604;2023-02-28T18:39:47;14.50;;;13.50;;
52023;SDS011;38038;45.922;13.604;2023-02-28T18:42:13;13.13;;;12.23;;
52023;SDS011;38038;45.922;13.604;2023-02-28T18:44:39;13.83;;;12.83;;
52023;SDS011;38038;45.922;13.604;2023-02-28T18:47:05;15.13;;;14.13;;
52023;SDS011;38038;45.922;13.604;2023-02-28T18:49:31;13.90;;;12.67;;
52023;SDS011;38038;45.922;13.604;2023-02-28T18:51:59;13.60;;;12.53;;
52023;SDS011;38038;45.922;13.604;2023-02-28T18:54:26;15.00;;;13.90;;
52023;SDS011;38038;45.922;13.604;2023-02-28T18:56:51;13.73;;;12.73;;
52023;SDS011;38038;45.922;13.604;2023-02-28T18:59:18;14.30;;;13.30;;
52023;SDS011;38038;45.922;13.604;2023-02-28T19:01:44;13.53;;;12.60;;
52023;SDS011;38038;45.922;13.604;2023-02-28T19:04:13;14.03;;;13.13;;
52023;SDS011;38038;45.922;13.604;2023-02-28T19:06:39;15.23;;;13.47;;
52023;SDS011;38038;45.922;13.604;2023-02-28T19:09:06;13.17;;;12.27;;
52023;SDS011;38038;45.922;13.604;2023-02-28T19:11:33;13.53;;;12.53;;
52023;SDS011;38038;45.922;13.604;2023-02-28T19:13:59;14.50;;;13.30;;
52023;SDS011;38038;45.922;13.604;2023-02-28T19:16:26;14.97;;;13.97;;
52023;SDS011;38038;45.922;13.604;2023-02-28T19:18:53;14.60;;;13.33;;
52023;SDS011;38038;45.922;13.604;2023-02-28T19:21:20;14.10;;;13.07;;
52023;SDS011;38038;45.922;13.604;2023-02-28T19:23:47;15.13;;;14.07;;
52023;SDS011;38038;45.922;13.604;2023-02-28T19:26:23;13.47;;;12.47;;
52023;SDS011;38038;45.922;13.604;2023-02-28T19:28:50;14.33;;;13.43;;
52023;SDS011;38038;45.922;13.604;2023-02-28T19:31:19;14.40;;;13.30;;
52023;SDS011;38038;45.922;13.604;2023-02-28T19:33:47;15.00;;;13.90;;
52023;SDS011;38038;45.922;13.604;2023-02-28T19:36:13;15.17;;;14.00;;
52023;SDS011;38038;45.922;13.604;2023-02-28T19:38:39;12.57;;;11.67;;
52023;SDS011;38038;45.922;13.604;2023-02-28T19:41:06;15.10;;;14.10;;
52023;SDS011;38038;45.922;13.604;2023-02-28T19:43:34;13.03;;;12.20;;
52023;SDS011;38038;45.922;13.604;2023-02-28T19:46:01;14.43;;;13.43;;
52023;SDS011;38038;45.922;13.604;2023-02-28T19:48:27;12.03;;;11.23;;
52023;SDS011;38038;45.922;13.604;2023-02-28T19:50:56;13.77;;;12.77;;
52023;SDS011;38038;45.922;13.604;2023-02-28T19:53:22;14.27;;;13.23;;
52023;SDS011;38038;45.922;13.604;2023-02-28T19:55:48;13.60;;;12.73;;
52023;SDS011;38038;45.922;13.604;2023-02-28T19:58:17;12.30;;;11.43;;
52023;SDS011;38038;45.922;13.604;2023-02-28T20:00:43;12.70;;;11.90;;
52023;SDS011;38038;45.922;13.604;2023-02-28T20:03:08;13.37;;;12.37;;
52023;SDS011;38038;45.922;13.604;2023-02-28T20:05:34;13.47;;;12.47;;
52023;SDS011;38038;45.922;13.604;2023-02-28T20:07:59;14.07;;;13.07;;
52023;SDS011;38038;45.922;13.604;2023-02-28T20:10:25;14.93;;;13.83;;
52023;SDS011;38038;45.922;13.604;2023-02-28T20:12:51;13.90;;;13.00;;
52023;SDS011;38038;45.922;13.604;2023-02-28T20:15:17;13.60;;;12.70;;
52023;SDS011;38038;45.922;13.604;2023-02-28T20:17:42;15.27;;;14.07;;
52023;SDS011;38038;45.922;13.604;2023-02-28T20:20:10;13.20;;;12.30;;
52023;SDS011;38038;45.922;13.604;2023-02-28T20:22:37;14.43;;;13.53;;
52023;SDS011;38038;45.922;13.604;2023-02-28T20:25:03;14.03;;;12.90;;
52023;SDS011;38038;45.922;13.604;2023-02-28T20:27:30;13.07;;;12.03;;
52023;SDS011;38038;45.922;13.604;2023-02-28T20:29:57;13.27;;;12.37;;
52023;SDS011;38038;45.922;13.604;2023-02-28T20:32:24;14.03;;;12.97;;
52023;SDS011;38038;45.922;13.604;2023-02-28T20:34:50;14.97;;;13.77;;
52023;SDS011;38038;45.922;13.604;2023-02-28T20:37:17;15.03;;;13.90;;
52023;SDS011;38038;45.922;13.604;2023-02-28T20:39:42;15.10;;;14.07;;
52023;SDS011;38038;45.922;13.604;2023-02-28T20:42:08;14.47;;;13.47;;
52023;SDS011;38038;45.922;13.604;2023-02-28T20:44:34;15.03;;;13.93;;
52023;SDS011;38038;45.922;13.604;2023-02-28T20:47:00;14.37;;;13.27;;
52023;SDS011;38038;45.922;13.604;2023-02-28T20:49:25;17.57;;;15.93;;
52023;SDS011;38038;45.922;13.604;2023-02-28T20:51:51;15.87;;;14.60;;
52023;SDS011;38038;45.922;13.604;2023-02-28T20:54:17;15.87;;;14.53;;
52023;SDS011;38038;45.922;13.604;2023-02-28T20:56:44;15.00;;;13.67;;
52023;SDS011;38038;45.922;13.604;2023-02-28T20:59:10;15.83;;;14.63;;
52023;SDS011;38038;45.922;13.604;2023-02-28T21:01:36;16.03;;;14.63;;
52023;SDS011;38038;45.922;13.604;2023-02-28T21:04:04;15.70;;;14.50;;
52023;SDS011;38038;45.922;13.604;2023-02-28T21:06:35;15.67;;;14.30;;
52023;SDS011;38038;45.922;13.604;2023-02-28T21:09:04;15.10;;;13.80;;
52023;SDS011;38038;45.922;13.604;2023-02-28T21:11:32;16.10;;;15.00;;
52023;SDS011;38038;45.922;13.604;2023-02-28T21:14:00;15.87;;;14.67;;
52023;SDS011;38038;45.922;13.604;2023-02-28T21:16:27;17.50;;;16.00;;
52023;SDS011;38038;45.922;13.604;2023-02-28T21:18:56;17.90;;;16.40;;
52023;SDS011;38038;45.922;13.604;2023-02-28T21:21:28;18.07;;;16.27;;
52023;SDS011;38038;45.922;13.604;2023-02-28T21:23:59;17.37;;;15.80;;
52023;SDS011;38038;45.922;13.604;2023-02-28T21:26:25;15.37;;;14.17;;
52023;SDS011;38038;45.922;13.604;2023-02-28T21:28:55;15.27;;;14.17;;
52023;SDS011;38038;45.922;13.604;2023-02-28T21:31:23;14.03;;;13.03;;
52023;SDS011;38038;45.922;13.604;2023-02-28T21:33:51;13.93;;;12.93;;
52023;SDS011;38038;45.922;13.604;2023-02-28T21:36:19;14.07;;;13.07;;
52023;SDS011;38038;45.922;13.604;2023-02-28T21:38:54;14.90;;;13.90;;
52023;SDS011;38038;45.922;13.604;2023-02-28T21:41:22;13.80;;;12.80;;
52023;SDS011;38038;45.922;13.604;2023-02-28T21:43:48;14.97;;;13.97;;
52023;SDS011;38038;45.922;13.604;2023-02-28T21:46:16;12.40;;;11.60;;
52023;SDS011;38038;45.922;13.604;2023-02-28T21:48:44;13.50;;;12.60;;
52023;SDS011;38038;45.922;13.604;2023-02-28T21:51:13;14.33;;;13.20;;
52023;SDS011;38038;45.922;13.604;2023-02-28T21:53:40;14.07;;;13.17;;
52023;SDS011;38038;45.922;13.604;2023-02-28T21:56:09;14.27;;;13.30;;
52023;SDS011;38038;45.922;13.604;2023-02-28T21:58:37;13.40;;;12.40;;
52023;SDS011;38038;45.922;13.604;2023-02-28T22:01:06;14.07;;;12.97;;
52023;SDS011;38038;45.922;13.604;2023-02-28T22:03:39;14.33;;;13.23;;
52023;SDS011;38038;45.922;13.604;2023-02-28T22:06:09;13.73;;;12.83;;
52023;SDS011;38038;45.922;13.604;2023-02-28T22:08:41;27.13;;;23.80;;
52023;SDS011;38038;45.922;13.604;2023-02-28T22:11:08;22.60;;;20.27;;
52023;SDS011;38038;45.922;13.604;2023-02-28T22:13:35;16.97;;;15.63;;
52023;SDS011;38038;45.922;13.604;2023-02-28T22:16:05;17.27;;;15.63;;
52023;SDS011;38038;45.922;13.604;2023-02-28T22:18:33;14.63;;;13.53;;
52023;SDS011;38038;45.922;13.604;2023-02-28T22:20:59;15.60;;;14.30;;
52023;SDS011;38038;45.922;13.604;2023-02-28T22:23:26;15.93;;;14.73;;
52023;SDS011;38038;45.922;13.604;2023-02-28T22:25:52;14.70;;;13.50;;
52023;SDS011;38038;45.922;13.604;2023-02-28T22:28:21;14.47;;;13.47;;
52023;SDS011;38038;45.922;13.604;2023-02-28T22:30:48;14.70;;;13.60;;
52023;SDS011;38038;45.922;13.604;2023-02-28T22:33:17;18.60;;;15.03;;
52023;SDS011;38038;45.922;13.604;2023-02-28T22:35:43;15.30;;;14.10;;
52023;SDS011;38038;45.922;13.604;2023-02-28T22:38:10;14.23;;;13.23;;
52023;SDS011;38038;45.922;13.604;2023-02-28T22:40:36;14.30;;;13.30;;
52023;SDS011;38038;45.922;13.604;2023-02-28T22:43:02;14.47;;;13.57;;